sensor_id;sensor_type;location;lat;lon;timestamp;temperature;humidity
16479;DHT22;8350;52.316;10.530;2023-03-01T00:01:15;-4.70;1.00
16479;DHT22;8350;52.316;10.530;2023-03-01T00:03:45;-4.70;1.00
16479;DHT22;8350;52.316;10.530;2023-03-01T00:06:13;-4.40;1.00
16479;DHT22;8350;52.316;10.530;2023-03-01T00:08:40;-4.30;1.00
16479;DHT22;8350;52.316;10.530;2023-03-01T00:11:10;-4.40;1.00
16479;DHT22;8350;52.316;10.530;2023-03-01T00:13:41;-4.50;1.00
16479;DHT22;8350;52.316;10.530;2023-03-01T00:16:10;-4.60;1.00
16479;DHT22;8350;52.316;10.530;2023-03-01T00:18:38;-4.60;1.00
16479;DHT22;8350;52.316;10.530;2023-03-01T00:21:06;-4.60;1.00
16479;DHT22;8350;52.316;10.530;2023-03-01T00:23:34;-4.50;1.00
16479;DHT22;8350;52.316;10.530;2023-03-01T00:26:01;-4.50;1.00
16479;DHT22;8350;52.316;10.530;2023-03-01T00:28:28;-4.40;1.00
16479;DHT22;8350;52.316;10.530;2023-03-01T00:30:55;-4.30;1.00
16479;DHT22;8350;52.316;10.530;2023-03-01T00:33:21;-4.30;1.00
16479;DHT22;8350;52.316;10.530;2023-03-01T00:35:48;-4.40;1.00
16479;DHT22;8350;52.316;10.530;2023-03-01T00:38:16;-4.50;1.00
16479;DHT22;8350;52.316;10.530;2023-03-01T00:40:43;-4.50;1.00
16479;DHT22;8350;52.316;10.530;2023-03-01T00:43:10;-4.60;1.00
16479;DHT22;8350;52.316;10.530;2023-03-01T00:45:37;-4.60;1.00
16479;DHT22;8350;52.316;10.530;2023-03-01T00:48:04;-4.60;1.00
16479;DHT22;8350;52.316;10.530;2023-03-01T00:50:31;-4.70;1.00
16479;DHT22;8350;52.316;10.530;2023-03-01T00:52:58;-4.90;1.00
16479;DHT22;8350;52.316;10.530;2023-03-01T00:55:26;-5.00;1.00
16479;DHT22;8350;52.316;10.530;2023-03-01T00:57:53;-4.90;1.00
16479;DHT22;8350;52.316;10.530;2023-03-01T01:00:20;-4.80;1.00
16479;DHT22;8350;52.316;10.530;2023-03-01T01:02:47;-4.80;1.00
16479;DHT22;8350;52.316;10.530;2023-03-01T01:05:14;-4.80;1.00
16479;DHT22;8350;52.316;10.530;2023-03-01T01:07:46;-4.70;1.00
16479;DHT22;8350;52.316;10.530;2023-03-01T01:10:13;-4.70;1.00
16479;DHT22;8350;52.316;10.530;2023-03-01T01:12:44;-4.60;1.00
16479;DHT22;8350;52.316;10.530;2023-03-01T01:15:11;-4.70;1.00
16479;DHT22;8350;52.316;10.530;2023-03-01T01:17:39;-4.80;1.00
16479;DHT22;8350;52.316;10.530;2023-03-01T01:20:08;-4.80;1.00
16479;DHT22;8350;52.316;10.530;2023-03-01T01:22:35;-4.90;1.00
16479;DHT22;8350;52.316;10.530;2023-03-01T01:25:02;-4.90;1.00
16479;DHT22;8350;52.316;10.530;2023-03-01T01:27:29;-4.90;1.00
16479;DHT22;8350;52.316;10.530;2023-03-01T01:29:58;-4.90;1.00
16479;DHT22;8350;52.316;10.530;2023-03-01T01:32:25;-4.90;1.00
16479;DHT22;8350;52.316;10.530;2023-03-01T01:34:51;-4.80;1.00
16479;DHT22;8350;52.316;10.530;2023-03-01T01:37:18;-4.80;1.00
16479;DHT22;8350;52.316;10.530;2023-03-01T01:39:45;-4.90;1.00
16479;DHT22;8350;52.316;10.530;2023-03-01T01:42:15;-5.00;1.00
16479;DHT22;8350;52.316;10.530;2023-03-01T01:44:44;-4.90;1.00
16479;DHT22;8350;52.316;10.530;2023-03-01T01:47:15;-4.90;1.00
16479;DHT22;8350;52.316;10.530;2023-03-01T01:49:47;-4.90;1.00
16479;DHT22;8350;52.316;10.530;2023-03-01T01:52:19;-5.00;1.00
16479;DHT22;8350;52.316;10.530;2023-03-01T01:54:51;-5.10;1.00
16479;DHT22;8350;52.316;10.530;2023-03-01T01:57:22;-5.20;1.00
16479;DHT22;8350;52.316;10.530;2023-03-01T01:59:52;-5.20;1.00
16479;DHT22;8350;52.316;10.530;2023-03-01T02:02:22;-5.30;1.00
16479;DHT22;8350;52.316;10.530;2023-03-01T02:04:53;-5.40;1.00
16479;DHT22;8350;52.316;10.530;2023-03-01T02:07:23;-5.40;1.00
16479;DHT22;8350;52.316;10.530;2023-03-01T02:09:52;-5.50;1.00
16479;DHT22;8350;52.316;10.530;2023-03-01T02:12:23;-5.50;1.00
16479;DHT22;8350;52.316;10.530;2023-03-01T02:14:52;-5.50;1.00
16479;DHT22;8350;52.316;10.530;2023-03-01T02:17:19;-5.60;1.00
16479;DHT22;8350;52.316;10.530;2023-03-01T02:19:58;-5.60;1.00
16479;DHT22;8350;52.316;10.530;2023-03-01T02:22:29;-5.50;1.00
16479;DHT22;8350;52.316;10.530;2023-03-01T02:25:07;-5.50;1.00
16479;DHT22;8350;52.316;10.530;2023-03-01T02:27:40;-5.50;1.00
16479;DHT22;8350;52.316;10.530;2023-03-01T02:30:10;-5.50;1.00
16479;DHT22;8350;52.316;10.530;2023-03-01T02:32:39;-5.60;1.00
16479;DHT22;8350;52.316;10.530;2023-03-01T02:35:09;-5.60;1.00
16479;DHT22;8350;52.316;10.530;2023-03-01T02:37:37;-5.70;1.00
16479;DHT22;8350;52.316;10.530;2023-03-01T02:40:07;-5.80;1.00
16479;DHT22;8350;52.316;10.530;2023-03-01T02:42:40;-5.80;1.00
16479;DHT22;8350;52.316;10.530;2023-03-01T02:45:11;-5.90;1.00
16479;DHT22;8350;52.316;10.530;2023-03-01T02:47:38;-5.80;1.00
16479;DHT22;8350;52.316;10.530;2023-03-01T02:50:21;-5.90;1.00
16479;DHT22;8350;52.316;10.530;2023-03-01T02:52:56;-5.90;1.00
16479;DHT22;8350;52.316;10.530;2023-03-01T02:55:24;-5.80;1.00
16479;DHT22;8350;52.316;10.530;2023-03-01T02:57:51;-5.70;1.00
16479;DHT22;8350;52.316;10.530;2023-03-01T03:00:23;-5.80;1.00
16479;DHT22;8350;52.316;10.530;2023-03-01T03:02:52;-5.80;1.00
16479;DHT22;8350;52.316;10.530;2023-03-01T03:05:21;-5.70;1.00
16479;DHT22;8350;52.316;10.530;2023-03-01T03:07:49;-5.80;1.00
16479;DHT22;8350;52.316;10.530;2023-03-01T03:10:19;-5.90;1.00
16479;DHT22;8350;52.316;10.530;2023-03-01T03:12:49;-5.90;1.00
16479;DHT22;8350;52.316;10.530;2023-03-01T03:15:16;-6.00;1.00
16479;DHT22;8350;52.316;10.530;2023-03-01T03:17:44;-6.10;1.00
16479;DHT22;8350;52.316;10.530;2023-03-01T03:20:13;-6.10;1.00
16479;DHT22;8350;52.316;10.530;2023-03-01T03:22:44;-6.20;1.00
16479;DHT22;8350;52.316;10.530;2023-03-01T03:25:11;-6.00;1.00
16479;DHT22;8350;52.316;10.530;2023-03-01T03:27:39;-6.00;1.00
16479;DHT22;8350;52.316;10.530;2023-03-01T03:30:07;-5.90;1.00
16479;DHT22;8350;52.316;10.530;2023-03-01T03:32:35;-6.00;1.00
16479;DHT22;8350;52.316;10.530;2023-03-01T03:35:05;-5.90;1.00
16479;DHT22;8350;52.316;10.530;2023-03-01T03:37:35;-5.90;1.00
16479;DHT22;8350;52.316;10.530;2023-03-01T03:40:20;-5.90;1.00
16479;DHT22;8350;52.316;10.530;2023-03-01T03:42:47;-6.00;1.00
16479;DHT22;8350;52.316;10.530;2023-03-01T03:45:14;-6.00;1.00
16479;DHT22;8350;52.316;10.530;2023-03-01T03:47:41;-6.10;1.00
16479;DHT22;8350;52.316;10.530;2023-03-01T03:50:11;-6.00;1.00
16479;DHT22;8350;52.316;10.530;2023-03-01T03:52:39;-6.00;1.00
16479;DHT22;8350;52.316;10.530;2023-03-01T03:55:07;-6.10;1.00
16479;DHT22;8350;52.316;10.530;2023-03-01T03:57:36;-6.10;1.00
16479;DHT22;8350;52.316;10.530;2023-03-01T04:00:04;-6.20;1.00
16479;DHT22;8350;52.316;10.530;2023-03-01T04:02:38;-6.20;1.00
16479;DHT22;8350;52.316;10.530;2023-03-01T04:05:06;-6.40;1.00
16479;DHT22;8350;52.316;10.530;2023-03-01T04:07:35;-6.50;1.00
16479;DHT22;8350;52.316;10.530;2023-03-01T04:10:03;-6.60;1.00
16479;DHT22;8350;52.316;10.530;2023-03-01T04:12:30;-6.60;1.00
16479;DHT22;8350;52.316;10.530;2023-03-01T04:14:59;-6.60;1.00
16479;DHT22;8350;52.316;10.530;2023-03-01T04:17:26;-6.40;1.00
16479;DHT22;8350;52.316;10.530;2023-03-01T04:19:53;-6.20;1.00
16479;DHT22;8350;52.316;10.530;2023-03-01T04:22:20;-6.20;1.00
16479;DHT22;8350;52.316;10.530;2023-03-01T04:24:48;-6.10;1.00
16479;DHT22;8350;52.316;10.530;2023-03-01T04:27:15;-5.90;1.00
16479;DHT22;8350;52.316;10.530;2023-03-01T04:29:42;-5.80;1.00
16479;DHT22;8350;52.316;10.530;2023-03-01T04:32:09;-5.80;1.00
16479;DHT22;8350;52.316;10.530;2023-03-01T04:34:35;-5.70;1.00
16479;DHT22;8350;52.316;10.530;2023-03-01T04:37:02;-5.60;1.00
16479;DHT22;8350;52.316;10.530;2023-03-01T04:39:29;-5.60;1.00
16479;DHT22;8350;52.316;10.530;2023-03-01T04:41:59;-5.80;1.00
16479;DHT22;8350;52.316;10.530;2023-03-01T04:44:26;-6.00;1.00
16479;DHT22;8350;52.316;10.530;2023-03-01T04:46:53;-6.10;1.00
16479;DHT22;8350;52.316;10.530;2023-03-01T04:49:20;-6.00;1.00
16479;DHT22;8350;52.316;10.530;2023-03-01T04:51:47;-6.00;1.00
16479;DHT22;8350;52.316;10.530;2023-03-01T04:54:14;-5.80;1.00
16479;DHT22;8350;52.316;10.530;2023-03-01T04:56:41;-5.70;1.00
16479;DHT22;8350;52.316;10.530;2023-03-01T04:59:09;-5.70;1.00
16479;DHT22;8350;52.316;10.530;2023-03-01T05:01:38;-5.70;1.00
16479;DHT22;8350;52.316;10.530;2023-03-01T05:04:08;-5.70;1.00
16479;DHT22;8350;52.316;10.530;2023-03-01T05:06:38;-5.60;1.00
16479;DHT22;8350;52.316;10.530;2023-03-01T05:09:06;-5.80;1.00
16479;DHT22;8350;52.316;10.530;2023-03-01T05:11:33;-5.70;1.00
16479;DHT22;8350;52.316;10.530;2023-03-01T05:14:01;-5.70;1.00
16479;DHT22;8350;52.316;10.530;2023-03-01T05:16:29;-5.80;1.00
16479;DHT22;8350;52.316;10.530;2023-03-01T05:18:57;-5.90;1.00
16479;DHT22;8350;52.316;10.530;2023-03-01T05:21:25;-5.80;1.00
16479;DHT22;8350;52.316;10.530;2023-03-01T05:23:52;-5.90;1.00
16479;DHT22;8350;52.316;10.530;2023-03-01T05:26:21;-6.00;1.00
16479;DHT22;8350;52.316;10.530;2023-03-01T05:28:52;-6.10;1.00
16479;DHT22;8350;52.316;10.530;2023-03-01T05:31:21;-6.00;1.00
16479;DHT22;8350;52.316;10.530;2023-03-01T05:33:50;-5.90;1.00
16479;DHT22;8350;52.316;10.530;2023-03-01T05:36:18;-5.90;1.00
16479;DHT22;8350;52.316;10.530;2023-03-01T05:38:45;-5.80;1.00
16479;DHT22;8350;52.316;10.530;2023-03-01T05:41:14;-5.90;1.00
16479;DHT22;8350;52.316;10.530;2023-03-01T05:43:42;-6.00;1.00
16479;DHT22;8350;52.316;10.530;2023-03-01T05:46:10;-6.10;1.00
16479;DHT22;8350;52.316;10.530;2023-03-01T05:48:38;-6.20;1.00
16479;DHT22;8350;52.316;10.530;2023-03-01T05:51:06;-6.20;1.00
16479;DHT22;8350;52.316;10.530;2023-03-01T05:53:33;-6.20;1.00
16479;DHT22;8350;52.316;10.530;2023-03-01T05:56:02;-6.30;1.00
16479;DHT22;8350;52.316;10.530;2023-03-01T05:58:29;-6.30;1.00
16479;DHT22;8350;52.316;10.530;2023-03-01T06:00:56;-6.40;1.00
16479;DHT22;8350;52.316;10.530;2023-03-01T06:03:23;-6.40;1.00
16479;DHT22;8350;52.316;10.530;2023-03-01T06:05:55;-6.50;1.00
16479;DHT22;8350;52.316;10.530;2023-03-01T06:08:23;-6.50;1.00
16479;DHT22;8350;52.316;10.530;2023-03-01T06:10:52;-6.60;1.00
16479;DHT22;8350;52.316;10.530;2023-03-01T06:13:19;-6.50;1.00
16479;DHT22;8350;52.316;10.530;2023-03-01T06:15:46;-6.50;1.00
16479;DHT22;8350;52.316;10.530;2023-03-01T06:18:12;-6.50;1.00
16479;DHT22;8350;52.316;10.530;2023-03-01T06:20:39;-6.60;1.00
16479;DHT22;8350;52.316;10.530;2023-03-01T06:23:06;-6.60;1.00
16479;DHT22;8350;52.316;10.530;2023-03-01T06:25:34;-6.60;1.00
16479;DHT22;8350;52.316;10.530;2023-03-01T06:28:01;-6.60;1.00
16479;DHT22;8350;52.316;10.530;2023-03-01T06:30:29;-6.60;1.00
16479;DHT22;8350;52.316;10.530;2023-03-01T06:32:57;-6.60;1.00
16479;DHT22;8350;52.316;10.530;2023-03-01T06:35:26;-6.50;1.00
16479;DHT22;8350;52.316;10.530;2023-03-01T06:37:55;-6.50;1.00
16479;DHT22;8350;52.316;10.530;2023-03-01T06:40:22;-6.40;1.00
16479;DHT22;8350;52.316;10.530;2023-03-01T06:42:51;-6.00;1.00
16479;DHT22;8350;52.316;10.530;2023-03-01T06:45:19;-5.40;1.00
16479;DHT22;8350;52.316;10.530;2023-03-01T06:47:46;-5.10;1.00
16479;DHT22;8350;52.316;10.530;2023-03-01T06:50:13;-4.40;1.00
16479;DHT22;8350;52.316;10.530;2023-03-01T06:52:41;-3.60;1.00
16479;DHT22;8350;52.316;10.530;2023-03-01T06:55:09;-2.60;1.00
16479;DHT22;8350;52.316;10.530;2023-03-01T06:57:39;-1.60;1.00
16479;DHT22;8350;52.316;10.530;2023-03-01T07:00:08;-0.60;1.00
16479;DHT22;8350;52.316;10.530;2023-03-01T07:02:35;0.10;99.90
16479;DHT22;8350;52.316;10.530;2023-03-01T07:05:02;0.50;99.90
16479;DHT22;8350;52.316;10.530;2023-03-01T07:07:29;0.70;99.90
16479;DHT22;8350;52.316;10.530;2023-03-01T07:10:03;0.70;15.90
16479;DHT22;8350;52.316;10.530;2023-03-01T07:12:30;0.70;95.80
16479;DHT22;8350;52.316;10.530;2023-03-01T07:14:57;0.30;99.90
16479;DHT22;8350;52.316;10.530;2023-03-01T07:17:25;0.20;99.90
16479;DHT22;8350;52.316;10.530;2023-03-01T07:19:52;0.00;99.90
16479;DHT22;8350;52.316;10.530;2023-03-01T07:22:19;-0.40;99.90
16479;DHT22;8350;52.316;10.530;2023-03-01T07:24:46;-0.70;1.00
16479;DHT22;8350;52.316;10.530;2023-03-01T07:27:13;-0.80;1.00
16479;DHT22;8350;52.316;10.530;2023-03-01T07:29:40;-1.00;1.00
16479;DHT22;8350;52.316;10.530;2023-03-01T07:34:44;-1.20;1.00
16479;DHT22;8350;52.316;10.530;2023-03-01T07:37:11;-1.30;1.00
16479;DHT22;8350;52.316;10.530;2023-03-01T07:39:38;-1.40;1.00
16479;DHT22;8350;52.316;10.530;2023-03-01T07:42:05;-1.40;1.00
16479;DHT22;8350;52.316;10.530;2023-03-01T07:44:32;-1.40;1.00
16479;DHT22;8350;52.316;10.530;2023-03-01T07:47:00;-1.40;1.00
16479;DHT22;8350;52.316;10.530;2023-03-01T07:49:30;-1.40;1.00
16479;DHT22;8350;52.316;10.530;2023-03-01T07:51:58;-1.40;1.00
16479;DHT22;8350;52.316;10.530;2023-03-01T07:54:27;-1.50;1.00
16479;DHT22;8350;52.316;10.530;2023-03-01T07:56:55;-1.50;1.00
16479;DHT22;8350;52.316;10.530;2023-03-01T07:59:22;-1.50;1.00
16479;DHT22;8350;52.316;10.530;2023-03-01T08:01:54;-1.40;1.00
16479;DHT22;8350;52.316;10.530;2023-03-01T08:04:21;-1.20;1.00
16479;DHT22;8350;52.316;10.530;2023-03-01T08:06:50;-1.10;1.00
16479;DHT22;8350;52.316;10.530;2023-03-01T08:09:18;-1.00;1.00
16479;DHT22;8350;52.316;10.530;2023-03-01T08:11:45;-0.80;1.00
16479;DHT22;8350;52.316;10.530;2023-03-01T08:14:12;-0.60;1.00
16479;DHT22;8350;52.316;10.530;2023-03-01T08:16:39;-0.40;1.00
16479;DHT22;8350;52.316;10.530;2023-03-01T08:19:06;-0.40;1.00
16479;DHT22;8350;52.316;10.530;2023-03-01T08:21:33;-0.30;1.00
16479;DHT22;8350;52.316;10.530;2023-03-01T08:24:01;-0.10;1.00
16479;DHT22;8350;52.316;10.530;2023-03-01T08:26:29;0.00;1.00
16479;DHT22;8350;52.316;10.530;2023-03-01T08:28:56;0.20;1.00
16479;DHT22;8350;52.316;10.530;2023-03-01T08:31:25;0.30;1.00
16479;DHT22;8350;52.316;10.530;2023-03-01T08:33:55;0.40;1.00
16479;DHT22;8350;52.316;10.530;2023-03-01T08:36:23;0.60;1.00
16479;DHT22;8350;52.316;10.530;2023-03-01T08:38:53;0.70;1.00
16479;DHT22;8350;52.316;10.530;2023-03-01T08:41:21;0.90;1.00
16479;DHT22;8350;52.316;10.530;2023-03-01T08:43:49;1.10;1.00
16479;DHT22;8350;52.316;10.530;2023-03-01T08:46:16;1.30;1.00
16479;DHT22;8350;52.316;10.530;2023-03-01T08:48:43;1.40;1.00
16479;DHT22;8350;52.316;10.530;2023-03-01T08:51:12;1.60;1.00
16479;DHT22;8350;52.316;10.530;2023-03-01T08:53:39;1.80;1.00
16479;DHT22;8350;52.316;10.530;2023-03-01T08:56:06;1.90;1.00
16479;DHT22;8350;52.316;10.530;2023-03-01T08:58:34;2.00;1.00
16479;DHT22;8350;52.316;10.530;2023-03-01T09:01:06;2.10;1.00
16479;DHT22;8350;52.316;10.530;2023-03-01T09:03:33;2.20;1.00
16479;DHT22;8350;52.316;10.530;2023-03-01T09:06:00;2.30;99.90
16479;DHT22;8350;52.316;10.530;2023-03-01T09:08:28;2.30;99.90
16479;DHT22;8350;52.316;10.530;2023-03-01T09:10:54;2.50;1.00
16479;DHT22;8350;52.316;10.530;2023-03-01T09:13:21;2.50;99.90
16479;DHT22;8350;52.316;10.530;2023-03-01T09:15:50;2.60;99.90
16479;DHT22;8350;52.316;10.530;2023-03-01T09:18:18;2.80;1.00
16479;DHT22;8350;52.316;10.530;2023-03-01T09:20:45;3.00;99.90
16479;DHT22;8350;52.316;10.530;2023-03-01T09:23:12;3.10;99.90
16479;DHT22;8350;52.316;10.530;2023-03-01T09:25:41;3.20;99.90
16479;DHT22;8350;52.316;10.530;2023-03-01T09:28:10;3.30;99.90
16479;DHT22;8350;52.316;10.530;2023-03-01T09:30:37;3.30;99.90
16479;DHT22;8350;52.316;10.530;2023-03-01T09:33:04;3.40;99.90
16479;DHT22;8350;52.316;10.530;2023-03-01T09:35:32;3.50;99.90
16479;DHT22;8350;52.316;10.530;2023-03-01T09:37:59;3.50;1.00
16479;DHT22;8350;52.316;10.530;2023-03-01T09:40:27;3.60;8.50
16479;DHT22;8350;52.316;10.530;2023-03-01T09:43:01;3.70;1.00
16479;DHT22;8350;52.316;10.530;2023-03-01T09:45:34;3.70;1.00
16479;DHT22;8350;52.316;10.530;2023-03-01T09:48:02;3.70;1.00
16479;DHT22;8350;52.316;10.530;2023-03-01T09:50:35;3.90;1.00
16479;DHT22;8350;52.316;10.530;2023-03-01T09:53:07;3.90;1.00
16479;DHT22;8350;52.316;10.530;2023-03-01T09:55:40;4.00;1.00
16479;DHT22;8350;52.316;10.530;2023-03-01T09:58:30;4.10;1.00
16479;DHT22;8350;52.316;10.530;2023-03-01T10:01:01;4.10;1.00
16479;DHT22;8350;52.316;10.530;2023-03-01T10:03:36;4.00;1.00
16479;DHT22;8350;52.316;10.530;2023-03-01T10:06:11;4.00;99.90
16479;DHT22;8350;52.316;10.530;2023-03-01T10:08:43;4.10;99.90
16479;DHT22;8350;52.316;10.530;2023-03-01T10:11:19;4.10;99.90
16479;DHT22;8350;52.316;10.530;2023-03-01T10:13:51;4.10;1.00
16479;DHT22;8350;52.316;10.530;2023-03-01T10:16:22;4.20;99.90
16479;DHT22;8350;52.316;10.530;2023-03-01T10:18:55;4.20;99.90
16479;DHT22;8350;52.316;10.530;2023-03-01T10:21:27;4.20;99.90
16479;DHT22;8350;52.316;10.530;2023-03-01T10:23:55;4.30;1.00
16479;DHT22;8350;52.316;10.530;2023-03-01T10:26:38;4.40;99.90
16479;DHT22;8350;52.316;10.530;2023-03-01T10:29:08;4.50;1.00
16479;DHT22;8350;52.316;10.530;2023-03-01T10:31:39;4.60;1.00
16479;DHT22;8350;52.316;10.530;2023-03-01T10:34:10;4.60;1.00
16479;DHT22;8350;52.316;10.530;2023-03-01T10:36:40;4.70;1.00
16479;DHT22;8350;52.316;10.530;2023-03-01T10:39:15;4.80;1.00
16479;DHT22;8350;52.316;10.530;2023-03-01T10:41:59;4.80;1.00
16479;DHT22;8350;52.316;10.530;2023-03-01T10:44:41;4.90;99.90
16479;DHT22;8350;52.316;10.530;2023-03-01T10:47:14;5.00;1.00
16479;DHT22;8350;52.316;10.530;2023-03-01T10:49:59;5.10;99.90
16479;DHT22;8350;52.316;10.530;2023-03-01T10:52:33;5.10;99.90
16479;DHT22;8350;52.316;10.530;2023-03-01T10:55:03;5.20;1.00
16479;DHT22;8350;52.316;10.530;2023-03-01T10:57:34;5.30;1.00
16479;DHT22;8350;52.316;10.530;2023-03-01T11:00:18;5.40;1.00
16479;DHT22;8350;52.316;10.530;2023-03-01T11:02:48;5.60;1.00
16479;DHT22;8350;52.316;10.530;2023-03-01T11:05:23;5.70;1.00
16479;DHT22;8350;52.316;10.530;2023-03-01T11:07:55;5.70;1.00
16479;DHT22;8350;52.316;10.530;2023-03-01T11:10:25;5.70;1.00
16479;DHT22;8350;52.316;10.530;2023-03-01T11:13:05;5.70;1.00
16479;DHT22;8350;52.316;10.530;2023-03-01T11:15:32;5.80;1.00
16479;DHT22;8350;52.316;10.530;2023-03-01T11:17:59;5.90;1.00
16479;DHT22;8350;52.316;10.530;2023-03-01T11:20:29;5.80;1.00
16479;DHT22;8350;52.316;10.530;2023-03-01T11:23:02;6.00;1.00
16479;DHT22;8350;52.316;10.530;2023-03-01T11:25:34;5.90;1.00
16479;DHT22;8350;52.316;10.530;2023-03-01T11:28:03;6.00;1.00
16479;DHT22;8350;52.316;10.530;2023-03-01T11:30:34;5.90;1.00
16479;DHT22;8350;52.316;10.530;2023-03-01T11:33:12;6.00;99.90
16479;DHT22;8350;52.316;10.530;2023-03-01T11:35:45;6.00;87.40
16479;DHT22;8350;52.316;10.530;2023-03-01T11:38:21;6.10;1.00
16479;DHT22;8350;52.316;10.530;2023-03-01T11:40:52;6.10;1.00
16479;DHT22;8350;52.316;10.530;2023-03-01T11:43:28;6.20;99.90
16479;DHT22;8350;52.316;10.530;2023-03-01T11:46:27;6.30;1.00
16479;DHT22;8350;52.316;10.530;2023-03-01T11:49:05;6.40;99.90
16479;DHT22;8350;52.316;10.530;2023-03-01T11:51:44;6.30;99.90
16479;DHT22;8350;52.316;10.530;2023-03-01T11:54:24;6.40;1.00
16479;DHT22;8350;52.316;10.530;2023-03-01T11:56:57;6.50;1.00
16479;DHT22;8350;52.316;10.530;2023-03-01T12:02:55;6.50;1.00
16479;DHT22;8350;52.316;10.530;2023-03-01T12:05:52;6.50;1.00
16479;DHT22;8350;52.316;10.530;2023-03-01T12:08:33;6.60;99.90
16479;DHT22;8350;52.316;10.530;2023-03-01T12:11:14;6.70;1.00
16479;DHT22;8350;52.316;10.530;2023-03-01T12:14:16;6.70;1.00
16479;DHT22;8350;52.316;10.530;2023-03-01T12:20:06;6.90;99.90
16479;DHT22;8350;52.316;10.530;2023-03-01T12:22:43;6.80;99.90
16479;DHT22;8350;52.316;10.530;2023-03-01T12:25:31;6.80;99.90
16479;DHT22;8350;52.316;10.530;2023-03-01T12:28:31;6.90;1.00
16479;DHT22;8350;52.316;10.530;2023-03-01T12:34:27;6.90;99.90
16479;DHT22;8350;52.316;10.530;2023-03-01T12:37:11;6.90;1.00
16479;DHT22;8350;52.316;10.530;2023-03-01T12:39:54;7.00;99.90
16479;DHT22;8350;52.316;10.530;2023-03-01T12:42:27;7.00;89.60
16479;DHT22;8350;52.316;10.530;2023-03-01T12:45:26;7.10;99.90
16479;DHT22;8350;52.316;10.530;2023-03-01T12:48:13;6.90;1.00
16479;DHT22;8350;52.316;10.530;2023-03-01T12:50:44;6.80;99.90
16479;DHT22;8350;52.316;10.530;2023-03-01T12:53:23;6.80;99.90
16479;DHT22;8350;52.316;10.530;2023-03-01T12:55:53;6.90;99.90
16479;DHT22;8350;52.316;10.530;2023-03-01T12:58:26;7.10;1.00
16479;DHT22;8350;52.316;10.530;2023-03-01T13:01:09;7.10;1.00
16479;DHT22;8350;52.316;10.530;2023-03-01T13:03:55;7.10;1.00
16479;DHT22;8350;52.316;10.530;2023-03-01T13:06:29;7.00;1.00
16479;DHT22;8350;52.316;10.530;2023-03-01T13:11:55;7.20;1.00
16479;DHT22;8350;52.316;10.530;2023-03-01T13:14:36;7.30;99.90
16479;DHT22;8350;52.316;10.530;2023-03-01T13:17:31;7.30;99.90
16479;DHT22;8350;52.316;10.530;2023-03-01T13:19:59;7.20;99.90
16479;DHT22;8350;52.316;10.530;2023-03-01T13:22:29;7.10;99.90
16479;DHT22;8350;52.316;10.530;2023-03-01T13:25:13;7.10;1.00
16479;DHT22;8350;52.316;10.530;2023-03-01T13:27:41;7.20;99.90
16479;DHT22;8350;52.316;10.530;2023-03-01T13:33:43;7.40;99.90
16479;DHT22;8350;52.316;10.530;2023-03-01T13:38:56;7.30;99.90
16479;DHT22;8350;52.316;10.530;2023-03-01T13:41:49;7.30;99.90
16479;DHT22;8350;52.316;10.530;2023-03-01T13:44:21;7.20;1.00
16479;DHT22;8350;52.316;10.530;2023-03-01T13:46:52;7.30;1.00
16479;DHT22;8350;52.316;10.530;2023-03-01T13:49:23;7.30;1.00
16479;DHT22;8350;52.316;10.530;2023-03-01T13:51:51;7.30;1.00
16479;DHT22;8350;52.316;10.530;2023-03-01T13:54:24;7.30;1.00
16479;DHT22;8350;52.316;10.530;2023-03-01T13:56:52;7.30;1.00
16479;DHT22;8350;52.316;10.530;2023-03-01T13:59:21;7.30;1.00
16479;DHT22;8350;52.316;10.530;2023-03-01T14:01:55;7.20;1.00
16479;DHT22;8350;52.316;10.530;2023-03-01T14:04:26;7.10;99.90
16479;DHT22;8350;52.316;10.530;2023-03-01T14:07:09;7.10;1.00
16479;DHT22;8350;52.316;10.530;2023-03-01T14:09:39;7.10;1.00
16479;DHT22;8350;52.316;10.530;2023-03-01T14:12:24;7.10;99.90
16479;DHT22;8350;52.316;10.530;2023-03-01T14:14:58;7.20;1.00
16479;DHT22;8350;52.316;10.530;2023-03-01T14:17:55;7.10;1.00
16479;DHT22;8350;52.316;10.530;2023-03-01T14:20:29;7.10;99.90
16479;DHT22;8350;52.316;10.530;2023-03-01T14:22:59;7.10;99.90
16479;DHT22;8350;52.316;10.530;2023-03-01T14:25:28;7.10;1.00
16479;DHT22;8350;52.316;10.530;2023-03-01T14:28:18;7.20;1.00
16479;DHT22;8350;52.316;10.530;2023-03-01T14:30:48;7.20;1.00
16479;DHT22;8350;52.316;10.530;2023-03-01T14:33:22;7.20;1.00
16479;DHT22;8350;52.316;10.530;2023-03-01T14:35:55;7.20;1.00
16479;DHT22;8350;52.316;10.530;2023-03-01T14:38:28;7.30;1.00
16479;DHT22;8350;52.316;10.530;2023-03-01T14:40:58;7.30;99.90
16479;DHT22;8350;52.316;10.530;2023-03-01T14:43:25;7.30;1.00
16479;DHT22;8350;52.316;10.530;2023-03-01T14:45:56;7.30;99.90
16479;DHT22;8350;52.316;10.530;2023-03-01T14:48:23;7.20;1.00
16479;DHT22;8350;52.316;10.530;2023-03-01T14:50:50;7.20;1.00
16479;DHT22;8350;52.316;10.530;2023-03-01T14:53:21;7.20;1.00
16479;DHT22;8350;52.316;10.530;2023-03-01T14:55:52;7.20;1.00
16479;DHT22;8350;52.316;10.530;2023-03-01T14:58:22;7.20;1.00
16479;DHT22;8350;52.316;10.530;2023-03-01T15:00:51;7.20;1.00
16479;DHT22;8350;52.316;10.530;2023-03-01T15:03:24;7.20;1.00
16479;DHT22;8350;52.316;10.530;2023-03-01T15:05:52;7.30;1.00
16479;DHT22;8350;52.316;10.530;2023-03-01T15:08:23;7.20;1.00
16479;DHT22;8350;52.316;10.530;2023-03-01T15:10:59;7.20;1.00
16479;DHT22;8350;52.316;10.530;2023-03-01T15:13:30;7.10;1.00
16479;DHT22;8350;52.316;10.530;2023-03-01T15:16:04;7.10;73.70
16479;DHT22;8350;52.316;10.530;2023-03-01T15:18:32;7.20;1.00
16479;DHT22;8350;52.316;10.530;2023-03-01T15:21:06;7.10;13.70
16479;DHT22;8350;52.316;10.530;2023-03-01T15:23:37;7.10;99.90
16479;DHT22;8350;52.316;10.530;2023-03-01T15:26:05;7.10;99.90
16479;DHT22;8350;52.316;10.530;2023-03-01T15:28:33;7.00;1.00
16479;DHT22;8350;52.316;10.530;2023-03-01T15:31:04;6.90;99.90
16479;DHT22;8350;52.316;10.530;2023-03-01T15:33:41;7.00;99.90
16479;DHT22;8350;52.316;10.530;2023-03-01T15:36:36;7.00;99.90
16479;DHT22;8350;52.316;10.530;2023-03-01T15:39:34;6.80;99.90
16479;DHT22;8350;52.316;10.530;2023-03-01T15:42:05;6.90;1.00
16479;DHT22;8350;52.316;10.530;2023-03-01T15:44:34;6.80;1.00
16479;DHT22;8350;52.316;10.530;2023-03-01T15:47:01;6.80;1.00
16479;DHT22;8350;52.316;10.530;2023-03-01T15:49:36;6.80;1.00
16479;DHT22;8350;52.316;10.530;2023-03-01T15:52:06;6.70;1.00
16479;DHT22;8350;52.316;10.530;2023-03-01T15:54:39;6.70;99.90
16479;DHT22;8350;52.316;10.530;2023-03-01T15:57:10;6.70;1.00
16479;DHT22;8350;52.316;10.530;2023-03-01T15:59:38;6.60;99.90
16479;DHT22;8350;52.316;10.530;2023-03-01T16:02:09;6.50;99.90
16479;DHT22;8350;52.316;10.530;2023-03-01T16:04:36;6.50;99.90
16479;DHT22;8350;52.316;10.530;2023-03-01T16:07:03;6.40;1.00
16479;DHT22;8350;52.316;10.530;2023-03-01T16:09:30;6.40;7.00
16479;DHT22;8350;52.316;10.530;2023-03-01T16:12:01;6.30;50.40
16479;DHT22;8350;52.316;10.530;2023-03-01T16:14:28;6.30;1.00
16479;DHT22;8350;52.316;10.530;2023-03-01T16:16:55;6.30;99.90
16479;DHT22;8350;52.316;10.530;2023-03-01T16:19:22;6.20;99.90
16479;DHT22;8350;52.316;10.530;2023-03-01T16:21:49;6.10;1.00
16479;DHT22;8350;52.316;10.530;2023-03-01T16:24:16;6.00;99.90
16479;DHT22;8350;52.316;10.530;2023-03-01T16:26:43;5.90;1.00
16479;DHT22;8350;52.316;10.530;2023-03-01T16:29:11;5.80;99.90
16479;DHT22;8350;52.316;10.530;2023-03-01T16:31:38;5.70;1.00
16479;DHT22;8350;52.316;10.530;2023-03-01T16:34:05;5.60;99.90